ROMMA est une association bénévole à but non lucratif. Votre soutien est indispensable : ADHERER à ROMMA ou FAIRE un DON

Chélieu - (38, Isère)

Terres Froides (550 m)   Longitude: 5° 28' 48.00" E   Latitude: 45° 31' 02.39"N Station partenaire n°44
 

Détail journalier du     <<     >>

Température Precipitation Humidité Pression Vent Dir Rafale Dir. rafale
Heure (°C) (mm) (%) (hPa) (km/h) (km/h)
01:00 12.807810203S21OSO
02:00 12.508110201S13S
03:00 12.607910204SSO13S
04:00 12.907910194S21SSE
05:00 12.807910196SO18SSO
06:00 12.707910193SO16OSO
07:00 12.408110198SO21SO
08:00 12.608110186SO23SO
09:00 12.908210187SSO21OSO
10:00 14.607910188SSO26SSO
11:00 16.107510198SSO19S
12:00 16.707510197S19SO
13:00 19.3066101810S35SO
14:00 18.3069101813SO42OSO
15:00 18.0073101912OSO40OSO
16:00 18.7071101814SO42OSO
17:00 18.3071101811SO34OSO
18:00 17.9072101810SSO31SSO
19:00 17.107410189SO26SO
20:00 16.707610189SO27SO
21:00 16.107710198SSO29S
22:00 15.807810196S23SSE
23:00 15.807810198S26S
minuit 15.407910199SSO26SSO

Graphique du 12-10-2019

 

Serveur OMMA